sensor_id;sensor_type;location;lat;lon;timestamp;P1;durP1;ratioP1;P2;durP2;ratioP2
73437;SDS011;66471;56.532;21.020;2023-09-19T06:23:48;19.88;;;12.48;;
73437;SDS011;66471;56.532;21.020;2023-09-19T06:26:15;19.15;;;13.00;;
73437;SDS011;66471;56.532;21.020;2023-09-19T06:28:43;19.38;;;13.40;;
73437;SDS011;66471;56.532;21.020;2023-09-19T06:31:11;21.05;;;13.60;;
73437;SDS011;66471;56.532;21.020;2023-09-19T06:33:39;20.80;;;12.73;;
73437;SDS011;66471;56.532;21.020;2023-09-19T06:36:06;19.35;;;13.00;;
73437;SDS011;66471;56.532;21.020;2023-09-19T06:38:34;20.52;;;13.75;;
73437;SDS011;66471;56.532;21.020;2023-09-19T06:41:02;20.20;;;12.45;;
73437;SDS011;66471;56.532;21.020;2023-09-19T06:43:35;18.35;;;12.73;;
73437;SDS011;66471;56.532;21.020;2023-09-19T06:46:02;21.67;;;13.67;;
73437;SDS011;66471;56.532;21.020;2023-09-19T06:48:30;18.25;;;11.88;;
73437;SDS011;66471;56.532;21.020;2023-09-19T06:50:59;20.67;;;12.93;;
73437;SDS011;66471;56.532;21.020;2023-09-19T06:53:32;20.58;;;12.65;;
73437;SDS011;66471;56.532;21.020;2023-09-19T06:56:02;18.20;;;12.68;;
73437;SDS011;66471;56.532;21.020;2023-09-19T06:58:29;18.97;;;12.20;;
73437;SDS011;66471;56.532;21.020;2023-09-19T07:00:58;21.70;;;12.75;;
73437;SDS011;66471;56.532;21.020;2023-09-19T07:03:25;19.08;;;11.95;;
73437;SDS011;66471;56.532;21.020;2023-09-19T07:05:55;19.20;;;12.68;;
73437;SDS011;66471;56.532;21.020;2023-09-19T07:08:25;21.13;;;13.13;;
73437;SDS011;66471;56.532;21.020;2023-09-19T07:10:52;21.00;;;12.90;;
73437;SDS011;66471;56.532;21.020;2023-09-19T07:13:20;20.20;;;12.30;;
73437;SDS011;66471;56.532;21.020;2023-09-19T07:15:48;17.77;;;12.02;;
73437;SDS011;66471;56.532;21.020;2023-09-19T07:18:17;19.58;;;12.65;;
73437;SDS011;66471;56.532;21.020;2023-09-19T07:20:44;19.75;;;13.30;;
73437;SDS011;66471;56.532;21.020;2023-09-19T07:23:16;22.20;;;12.73;;
73437;SDS011;66471;56.532;21.020;2023-09-19T07:25:48;21.52;;;13.20;;
73437;SDS011;66471;56.532;21.020;2023-09-19T07:28:16;20.13;;;12.90;;
73437;SDS011;66471;56.532;21.020;2023-09-19T07:30:44;20.27;;;13.80;;
73437;SDS011;66471;56.532;21.020;2023-09-19T07:33:11;20.10;;;13.13;;
73437;SDS011;66471;56.532;21.020;2023-09-19T07:35:39;18.37;;;12.43;;
73437;SDS011;66471;56.532;21.020;2023-09-19T07:38:07;22.45;;;13.57;;
73437;SDS011;66471;56.532;21.020;2023-09-19T07:40:34;24.17;;;14.70;;
73437;SDS011;66471;56.532;21.020;2023-09-19T07:43:03;24.65;;;14.73;;
73437;SDS011;66471;56.532;21.020;2023-09-19T07:45:31;25.38;;;14.38;;
73437;SDS011;66471;56.532;21.020;2023-09-19T07:47:59;23.30;;;15.50;;
73437;SDS011;66471;56.532;21.020;2023-09-19T07:50:30;22.23;;;14.68;;
73437;SDS011;66471;56.532;21.020;2023-09-19T07:53:00;26.88;;;15.05;;
73437;SDS011;66471;56.532;21.020;2023-09-19T07:55:28;27.10;;;15.68;;
73437;SDS011;66471;56.532;21.020;2023-09-19T07:57:55;28.80;;;16.70;;
73437;SDS011;66471;56.532;21.020;2023-09-19T08:00:23;33.27;;;16.83;;
73437;SDS011;66471;56.532;21.020;2023-09-19T08:02:51;35.45;;;19.05;;
73437;SDS011;66471;56.532;21.020;2023-09-19T08:05:29;36.95;;;20.05;;
73437;SDS011;66471;56.532;21.020;2023-09-19T08:07:56;40.53;;;19.92;;
73437;SDS011;66471;56.532;21.020;2023-09-19T08:10:23;54.17;;;26.13;;
73437;SDS011;66471;56.532;21.020;2023-09-19T08:12:54;40.27;;;22.03;;
73437;SDS011;66471;56.532;21.020;2023-09-19T08:15:24;45.45;;;23.55;;
